sensor_id;sensor_type;location;lat;lon;timestamp;temperature;humidity
7784;DHT22;19359;51.402;6.778;2023-02-24T00:04:52;5.90;94.30
7784;DHT22;19359;51.402;6.778;2023-02-24T00:12:15;6.00;94.40
7784;DHT22;19359;51.402;6.778;2023-02-24T00:14:43;5.90;95.00
7784;DHT22;19359;51.402;6.778;2023-02-24T00:27:03;5.70;95.60
7784;DHT22;19359;51.402;6.778;2023-02-24T00:29:32;6.20;99.90
7784;DHT22;19359;51.402;6.778;2023-02-24T00:34:32;5.60;96.90
7784;DHT22;19359;51.402;6.778;2023-02-24T00:39:29;5.60;96.10
7784;DHT22;19359;51.402;6.778;2023-02-24T00:44:29;5.50;96.60
7784;DHT22;19359;51.402;6.778;2023-02-24T00:46:57;5.50;94.30
7784;DHT22;19359;51.402;6.778;2023-02-24T00:51:54;5.40;94.10
7784;DHT22;19359;51.402;6.778;2023-02-24T00:54:21;5.30;93.30
7784;DHT22;19359;51.402;6.778;2023-02-24T00:56:53;5.30;94.00
7784;DHT22;19359;51.402;6.778;2023-02-24T01:01:49;5.30;90.70
7784;DHT22;19359;51.402;6.778;2023-02-24T01:04:16;5.40;90.10
7784;DHT22;19359;51.402;6.778;2023-02-24T01:06:46;5.40;90.70
7784;DHT22;19359;51.402;6.778;2023-02-24T01:09:16;5.40;90.60
7784;DHT22;19359;51.402;6.778;2023-02-24T01:11:45;5.40;90.70
7784;DHT22;19359;51.402;6.778;2023-02-24T01:14:33;5.40;92.30
7784;DHT22;19359;51.402;6.778;2023-02-24T01:19:29;5.40;92.70
7784;DHT22;19359;51.402;6.778;2023-02-24T01:31:48;5.20;98.60
7784;DHT22;19359;51.402;6.778;2023-02-24T01:36:44;5.20;99.30
7784;DHT22;19359;51.402;6.778;2023-02-24T01:39:11;5.10;99.90
7784;DHT22;19359;51.402;6.778;2023-02-24T01:41:41;5.10;99.90
7784;DHT22;19359;51.402;6.778;2023-02-24T01:47:11;5.20;99.90
7784;DHT22;19359;51.402;6.778;2023-02-24T01:49:41;5.20;99.90
7784;DHT22;19359;51.402;6.778;2023-02-24T01:52:16;5.10;99.90
7784;DHT22;19359;51.402;6.778;2023-02-24T01:54:47;5.10;99.90
7784;DHT22;19359;51.402;6.778;2023-02-24T01:57:17;5.20;99.90
7784;DHT22;19359;51.402;6.778;2023-02-24T01:59:46;5.10;98.40
7784;DHT22;19359;51.402;6.778;2023-02-24T02:02:16;5.00;98.60
7784;DHT22;19359;51.402;6.778;2023-02-24T02:04:48;5.10;98.00
7784;DHT22;19359;51.402;6.778;2023-02-24T02:07:17;5.10;98.00
7784;DHT22;19359;51.402;6.778;2023-02-24T02:09:47;5.00;97.60
7784;DHT22;19359;51.402;6.778;2023-02-24T02:14:44;5.00;93.30
7784;DHT22;19359;51.402;6.778;2023-02-24T02:17:16;5.00;93.80
7784;DHT22;19359;51.402;6.778;2023-02-24T02:20:12;5.00;93.20
7784;DHT22;19359;51.402;6.778;2023-02-24T02:23:07;4.60;94.30
7784;DHT22;19359;51.402;6.778;2023-02-24T02:25:53;5.00;92.70
7784;DHT22;19359;51.402;6.778;2023-02-24T02:28:40;5.00;90.30
7784;DHT22;19359;51.402;6.778;2023-02-24T02:31:46;4.60;99.90
7784;DHT22;19359;51.402;6.778;2023-02-24T02:34:28;4.90;99.90
7784;DHT22;19359;51.402;6.778;2023-02-24T02:37:03;4.80;94.70
7784;DHT22;19359;51.402;6.778;2023-02-24T02:39:39;4.80;95.00
7784;DHT22;19359;51.402;6.778;2023-02-24T02:42:16;4.90;96.40
7784;DHT22;19359;51.402;6.778;2023-02-24T02:44:52;4.80;97.40
7784;DHT22;19359;51.402;6.778;2023-02-24T02:47:26;4.80;98.70
7784;DHT22;19359;51.402;6.778;2023-02-24T02:49:58;4.80;99.90
7784;DHT22;19359;51.402;6.778;2023-02-24T02:52:32;5.20;98.50
7784;DHT22;19359;51.402;6.778;2023-02-24T02:55:05;4.60;98.20
7784;DHT22;19359;51.402;6.778;2023-02-24T02:57:33;4.60;97.80
7784;DHT22;19359;51.402;6.778;2023-02-24T03:00:06;4.50;99.10
7784;DHT22;19359;51.402;6.778;2023-02-24T03:02:38;4.40;99.90
7784;DHT22;19359;51.402;6.778;2023-02-24T03:05:09;4.30;99.90
7784;DHT22;19359;51.402;6.778;2023-02-24T03:07:40;4.40;99.90
7784;DHT22;19359;51.402;6.778;2023-02-24T03:10:15;4.50;99.90
7784;DHT22;19359;51.402;6.778;2023-02-24T03:12:49;4.40;99.90
7784;DHT22;19359;51.402;6.778;2023-02-24T03:15:18;4.40;99.90
7784;DHT22;19359;51.402;6.778;2023-02-24T03:17:48;4.40;96.70
7784;DHT22;19359;51.402;6.778;2023-02-24T03:22:57;4.50;92.60
7784;DHT22;19359;51.402;6.778;2023-02-24T03:25:30;4.40;92.10
7784;DHT22;19359;51.402;6.778;2023-02-24T03:28:06;4.40;90.80
7784;DHT22;19359;51.402;6.778;2023-02-24T03:30:39;4.40;90.00
7784;DHT22;19359;51.402;6.778;2023-02-24T03:33:11;4.50;89.80
7784;DHT22;19359;51.402;6.778;2023-02-24T03:35:42;4.50;88.80
7784;DHT22;19359;51.402;6.778;2023-02-24T03:40:39;4.60;90.90
7784;DHT22;19359;51.402;6.778;2023-02-24T03:43:12;4.60;90.60
7784;DHT22;19359;51.402;6.778;2023-02-24T03:48:09;4.40;88.90
7784;DHT22;19359;51.402;6.778;2023-02-24T03:50:38;4.50;85.30
7784;DHT22;19359;51.402;6.778;2023-02-24T03:53:15;4.50;84.80
7784;DHT22;19359;51.402;6.778;2023-02-24T03:55:52;4.50;84.50
7784;DHT22;19359;51.402;6.778;2023-02-24T03:58:35;4.60;85.90
7784;DHT22;19359;51.402;6.778;2023-02-24T04:03:37;4.40;85.90
7784;DHT22;19359;51.402;6.778;2023-02-24T04:08:46;4.50;85.60
7784;DHT22;19359;51.402;6.778;2023-02-24T04:11:21;4.40;87.90
7784;DHT22;19359;51.402;6.778;2023-02-24T04:13:52;4.40;88.00
7784;DHT22;19359;51.402;6.778;2023-02-24T04:16:26;4.40;88.50
7784;DHT22;19359;51.402;6.778;2023-02-24T04:18:56;4.40;89.30
7784;DHT22;19359;51.402;6.778;2023-02-24T04:21:26;4.40;90.00
7784;DHT22;19359;51.402;6.778;2023-02-24T04:23:56;4.40;91.10
7784;DHT22;19359;51.402;6.778;2023-02-24T04:26:25;4.40;90.20
7784;DHT22;19359;51.402;6.778;2023-02-24T04:28:53;4.30;89.90
7784;DHT22;19359;51.402;6.778;2023-02-24T04:31:21;4.30;89.80
7784;DHT22;19359;51.402;6.778;2023-02-24T04:36:19;4.30;89.70
7784;DHT22;19359;51.402;6.778;2023-02-24T04:41:15;4.30;87.90
7784;DHT22;19359;51.402;6.778;2023-02-24T04:43:46;4.30;87.50
7784;DHT22;19359;51.402;6.778;2023-02-24T04:56:05;4.30;86.80
7784;DHT22;19359;51.402;6.778;2023-02-24T04:58:37;4.30;83.60
7784;DHT22;19359;51.402;6.778;2023-02-24T05:01:08;4.20;99.90
7784;DHT22;19359;51.402;6.778;2023-02-24T05:06:06;4.30;99.10
7784;DHT22;19359;51.402;6.778;2023-02-24T05:08:34;4.30;99.90
7784;DHT22;19359;51.402;6.778;2023-02-24T05:11:03;4.40;99.90
7784;DHT22;19359;51.402;6.778;2023-02-24T05:13:31;4.40;85.50
7784;DHT22;19359;51.402;6.778;2023-02-24T05:16:03;4.40;83.40
7784;DHT22;19359;51.402;6.778;2023-02-24T05:21:04;4.40;79.70
7784;DHT22;19359;51.402;6.778;2023-02-24T05:23:52;4.40;79.50
7784;DHT22;19359;51.402;6.778;2023-02-24T05:26:21;4.30;81.90
7784;DHT22;19359;51.402;6.778;2023-02-24T05:28:51;4.30;82.30
7784;DHT22;19359;51.402;6.778;2023-02-24T05:31:21;4.30;83.00
7784;DHT22;19359;51.402;6.778;2023-02-24T05:33:52;4.50;83.30
7784;DHT22;19359;51.402;6.778;2023-02-24T05:36:21;4.40;82.20
7784;DHT22;19359;51.402;6.778;2023-02-24T05:38:50;4.50;80.80
7784;DHT22;19359;51.402;6.778;2023-02-24T05:41:20;4.50;78.20
7784;DHT22;19359;51.402;6.778;2023-02-24T05:43:49;4.40;77.90
7784;DHT22;19359;51.402;6.778;2023-02-24T05:48:49;4.50;77.70
7784;DHT22;19359;51.402;6.778;2023-02-24T06:01:10;4.50;71.70
7784;DHT22;19359;51.402;6.778;2023-02-24T06:03:41;4.40;71.90
7784;DHT22;19359;51.402;6.778;2023-02-24T06:16:13;4.40;73.20
7784;DHT22;19359;51.402;6.778;2023-02-24T06:23:38;4.40;71.60
7784;DHT22;19359;51.402;6.778;2023-02-24T06:28:39;4.50;70.10
7784;DHT22;19359;51.402;6.778;2023-02-24T06:36:03;4.30;96.70
7784;DHT22;19359;51.402;6.778;2023-02-24T06:41:00;4.30;76.10
7784;DHT22;19359;51.402;6.778;2023-02-24T06:58:16;4.40;52.80
7784;DHT22;19359;51.402;6.778;2023-02-24T07:00:44;4.40;48.90
7784;DHT22;19359;51.402;6.778;2023-02-24T07:03:22;4.40;45.10
7784;DHT22;19359;51.402;6.778;2023-02-24T07:08:45;4.50;38.30
7784;DHT22;19359;51.402;6.778;2023-02-24T07:13:43;4.50;51.30
7784;DHT22;19359;51.402;6.778;2023-02-24T07:18:41;4.50;79.50
7784;DHT22;19359;51.402;6.778;2023-02-24T07:21:09;4.50;47.60
7784;DHT22;19359;51.402;6.778;2023-02-24T07:23:37;4.50;42.70
7784;DHT22;19359;51.402;6.778;2023-02-24T07:26:08;4.00;35.30
7784;DHT22;19359;51.402;6.778;2023-02-24T07:31:06;4.60;26.20
7784;DHT22;19359;51.402;6.778;2023-02-24T07:48:23;4.80;20.50
7784;DHT22;19359;51.402;6.778;2023-02-24T08:03:26;4.90;9.70
7784;DHT22;19359;51.402;6.778;2023-02-24T08:16:04;5.10;3.90
7784;DHT22;19359;51.402;6.778;2023-02-24T08:18:32;5.00;1.50
7784;DHT22;19359;51.402;6.778;2023-02-24T08:21:02;5.00;4.70
7784;DHT22;19359;51.402;6.778;2023-02-24T08:26:01;5.10;7.70
7784;DHT22;19359;51.402;6.778;2023-02-24T08:41:04;5.10;13.20
7784;DHT22;19359;51.402;6.778;2023-02-24T08:43:38;5.20;13.00
7784;DHT22;19359;51.402;6.778;2023-02-24T08:46:13;5.10;13.90
7784;DHT22;19359;51.402;6.778;2023-02-24T08:48:44;5.10;15.90
7784;DHT22;19359;51.402;6.778;2023-02-24T08:51:15;5.20;13.10
7784;DHT22;19359;51.402;6.778;2023-02-24T08:53:42;5.20;11.10
7784;DHT22;19359;51.402;6.778;2023-02-24T08:56:13;5.20;14.20
7784;DHT22;19359;51.402;6.778;2023-02-24T09:01:17;5.20;11.20
7784;DHT22;19359;51.402;6.778;2023-02-24T09:03:45;5.10;15.00
7784;DHT22;19359;51.402;6.778;2023-02-24T09:06:15;5.20;14.60
7784;DHT22;19359;51.402;6.778;2023-02-24T09:08:44;5.30;14.50
7784;DHT22;19359;51.402;6.778;2023-02-24T09:11:13;5.30;12.40
7784;DHT22;19359;51.402;6.778;2023-02-24T09:13:42;5.40;12.30
7784;DHT22;19359;51.402;6.778;2023-02-24T09:16:17;5.50;11.00
7784;DHT22;19359;51.402;6.778;2023-02-24T09:21:33;5.50;14.10
7784;DHT22;19359;51.402;6.778;2023-02-24T09:34:30;5.40;1.00
7784;DHT22;19359;51.402;6.778;2023-02-24T09:39:30;5.50;1.80
7784;DHT22;19359;51.402;6.778;2023-02-24T09:42:19;5.50;5.40
7784;DHT22;19359;51.402;6.778;2023-02-24T09:45:01;5.50;1.00
7784;DHT22;19359;51.402;6.778;2023-02-24T09:47:33;5.70;1.00
7784;DHT22;19359;51.402;6.778;2023-02-24T09:50:27;5.60;1.00
7784;DHT22;19359;51.402;6.778;2023-02-24T09:53:14;5.60;3.30
7784;DHT22;19359;51.402;6.778;2023-02-24T09:55:48;5.60;1.00
7784;DHT22;19359;51.402;6.778;2023-02-24T09:58:34;5.50;1.00
7784;DHT22;19359;51.402;6.778;2023-02-24T10:03:51;5.50;1.00
7784;DHT22;19359;51.402;6.778;2023-02-24T10:06:30;5.40;1.00
7784;DHT22;19359;51.402;6.778;2023-02-24T10:09:11;5.50;1.00
7784;DHT22;19359;51.402;6.778;2023-02-24T10:11:41;5.40;1.60
7784;DHT22;19359;51.402;6.778;2023-02-24T10:14:20;5.50;6.00
7784;DHT22;19359;51.402;6.778;2023-02-24T10:16:50;5.50;3.30
7784;DHT22;19359;51.402;6.778;2023-02-24T10:19:41;5.50;1.80
7784;DHT22;19359;51.402;6.778;2023-02-24T10:22:15;5.50;6.10
7784;DHT22;19359;51.402;6.778;2023-02-24T10:24:58;5.60;6.20
7784;DHT22;19359;51.402;6.778;2023-02-24T10:27:40;5.50;5.60
7784;DHT22;19359;51.402;6.778;2023-02-24T10:30:14;5.50;6.30
7784;DHT22;19359;51.402;6.778;2023-02-24T10:32:51;5.50;5.70
7784;DHT22;19359;51.402;6.778;2023-02-24T10:35:19;5.50;7.30
7784;DHT22;19359;51.402;6.778;2023-02-24T10:37:50;5.60;7.30
7784;DHT22;19359;51.402;6.778;2023-02-24T10:40:19;5.60;26.10
7784;DHT22;19359;51.402;6.778;2023-02-24T10:43:02;5.50;8.70
7784;DHT22;19359;51.402;6.778;2023-02-24T10:45:37;5.50;8.80
7784;DHT22;19359;51.402;6.778;2023-02-24T10:50:40;5.60;6.60
7784;DHT22;19359;51.402;6.778;2023-02-24T10:53:13;5.50;15.00
7784;DHT22;19359;51.402;6.778;2023-02-24T10:56:02;5.40;12.40
7784;DHT22;19359;51.402;6.778;2023-02-24T10:59:03;5.40;18.00
7784;DHT22;19359;51.402;6.778;2023-02-24T11:01:52;5.20;19.00
7784;DHT22;19359;51.402;6.778;2023-02-24T11:04:31;5.20;24.00
7784;DHT22;19359;51.402;6.778;2023-02-24T11:07:12;5.10;34.00
7784;DHT22;19359;51.402;6.778;2023-02-24T11:10:00;5.00;32.00
7784;DHT22;19359;51.402;6.778;2023-02-24T11:12:41;5.00;42.80
7784;DHT22;19359;51.402;6.778;2023-02-24T11:15:30;5.10;44.00
7784;DHT22;19359;51.402;6.778;2023-02-24T11:18:17;5.00;40.60
7784;DHT22;19359;51.402;6.778;2023-02-24T11:20:50;4.90;46.20
7784;DHT22;19359;51.402;6.778;2023-02-24T11:23:21;4.90;50.30
7784;DHT22;19359;51.402;6.778;2023-02-24T11:25:51;4.80;56.80
7784;DHT22;19359;51.402;6.778;2023-02-24T11:28:30;4.70;57.70
7784;DHT22;19359;51.402;6.778;2023-02-24T11:31:04;4.80;63.80
7784;DHT22;19359;51.402;6.778;2023-02-24T11:33:37;4.80;66.50
7784;DHT22;19359;51.402;6.778;2023-02-24T11:36:13;4.80;67.70
7784;DHT22;19359;51.402;6.778;2023-02-24T11:38:47;4.70;65.00
7784;DHT22;19359;51.402;6.778;2023-02-24T11:43:56;4.70;69.30
7784;DHT22;19359;51.402;6.778;2023-02-24T11:46:33;4.70;73.30
7784;DHT22;19359;51.402;6.778;2023-02-24T11:49:02;4.70;72.80
7784;DHT22;19359;51.402;6.778;2023-02-24T11:51:35;4.80;79.00
7784;DHT22;19359;51.402;6.778;2023-02-24T11:54:05;4.80;76.30
7784;DHT22;19359;51.402;6.778;2023-02-24T11:56:37;4.80;74.70
7784;DHT22;19359;51.402;6.778;2023-02-24T11:59:11;4.80;73.80
7784;DHT22;19359;51.402;6.778;2023-02-24T12:01:46;4.70;73.30
7784;DHT22;19359;51.402;6.778;2023-02-24T12:04:19;4.70;76.90
7784;DHT22;19359;51.402;6.778;2023-02-24T12:06:50;4.70;77.10
7784;DHT22;19359;51.402;6.778;2023-02-24T12:09:20;4.50;75.10
7784;DHT22;19359;51.402;6.778;2023-02-24T12:11:54;4.60;82.70
7784;DHT22;19359;51.402;6.778;2023-02-24T12:14:29;4.50;86.20
7784;DHT22;19359;51.402;6.778;2023-02-24T12:17:12;4.70;80.10
7784;DHT22;19359;51.402;6.778;2023-02-24T12:19:51;4.00;84.50
7784;DHT22;19359;51.402;6.778;2023-02-24T12:22:24;4.70;87.90
7784;DHT22;19359;51.402;6.778;2023-02-24T12:24:52;4.60;86.30
7784;DHT22;19359;51.402;6.778;2023-02-24T12:27:34;4.60;91.50
7784;DHT22;19359;51.402;6.778;2023-02-24T12:30:23;4.80;92.50
7784;DHT22;19359;51.402;6.778;2023-02-24T12:33:06;4.60;93.20
7784;DHT22;19359;51.402;6.778;2023-02-24T12:35:43;4.70;95.40
7784;DHT22;19359;51.402;6.778;2023-02-24T12:38:22;4.80;98.10
7784;DHT22;19359;51.402;6.778;2023-02-24T12:40:56;4.80;96.00
7784;DHT22;19359;51.402;6.778;2023-02-24T12:43:28;4.80;94.50
7784;DHT22;19359;51.402;6.778;2023-02-24T12:46:04;4.60;93.40
7784;DHT22;19359;51.402;6.778;2023-02-24T12:48:54;4.70;95.90
7784;DHT22;19359;51.402;6.778;2023-02-24T12:51:27;4.60;96.40
7784;DHT22;19359;51.402;6.778;2023-02-24T12:54:01;4.50;94.00
7784;DHT22;19359;51.402;6.778;2023-02-24T12:56:36;4.50;96.30
7784;DHT22;19359;51.402;6.778;2023-02-24T12:59:08;4.60;98.90
7784;DHT22;19359;51.402;6.778;2023-02-24T13:01:46;4.60;99.90
7784;DHT22;19359;51.402;6.778;2023-02-24T13:04:38;4.50;99.90
7784;DHT22;19359;51.402;6.778;2023-02-24T13:07:17;4.60;99.90
7784;DHT22;19359;51.402;6.778;2023-02-24T13:09:53;4.70;99.90
7784;DHT22;19359;51.402;6.778;2023-02-24T13:12:26;4.70;99.90
7784;DHT22;19359;51.402;6.778;2023-02-24T13:19:54;4.80;99.90
7784;DHT22;19359;51.402;6.778;2023-02-24T13:22:25;4.80;99.90
7784;DHT22;19359;51.402;6.778;2023-02-24T13:25:08;4.60;96.50
7784;DHT22;19359;51.402;6.778;2023-02-24T13:27:37;4.30;99.90
7784;DHT22;19359;51.402;6.778;2023-02-24T13:30:21;4.80;99.90
7784;DHT22;19359;51.402;6.778;2023-02-24T13:33:01;4.70;99.90
7784;DHT22;19359;51.402;6.778;2023-02-24T13:35:31;4.80;99.90
7784;DHT22;19359;51.402;6.778;2023-02-24T13:38:08;4.80;99.90
7784;DHT22;19359;51.402;6.778;2023-02-24T13:40:35;4.80;99.90
7784;DHT22;19359;51.402;6.778;2023-02-24T13:45:30;5.00;99.90
7784;DHT22;19359;51.402;6.778;2023-02-24T13:48:17;5.00;99.90
7784;DHT22;19359;51.402;6.778;2023-02-24T13:51:04;4.90;99.90
7784;DHT22;19359;51.402;6.778;2023-02-24T13:53:53;4.90;99.90
7784;DHT22;19359;51.402;6.778;2023-02-24T13:56:33;4.90;99.90
7784;DHT22;19359;51.402;6.778;2023-02-24T13:59:25;4.40;99.90
7784;DHT22;19359;51.402;6.778;2023-02-24T14:01:59;4.90;99.90
7784;DHT22;19359;51.402;6.778;2023-02-24T14:04:29;5.10;99.90
7784;DHT22;19359;51.402;6.778;2023-02-24T14:06:58;4.90;99.90
7784;DHT22;19359;51.402;6.778;2023-02-24T14:09:29;5.00;99.90
7784;DHT22;19359;51.402;6.778;2023-02-24T14:11:59;5.00;99.90
7784;DHT22;19359;51.402;6.778;2023-02-24T14:19:23;5.10;99.90
7784;DHT22;19359;51.402;6.778;2023-02-24T14:21:53;5.00;99.90
7784;DHT22;19359;51.402;6.778;2023-02-24T14:26:49;5.00;99.90
7784;DHT22;19359;51.402;6.778;2023-02-24T14:29:18;5.10;99.90
7784;DHT22;19359;51.402;6.778;2023-02-24T14:31:47;4.90;99.90
7784;DHT22;19359;51.402;6.778;2023-02-24T14:34:17;5.10;99.90
7784;DHT22;19359;51.402;6.778;2023-02-24T14:36:46;5.20;99.90
7784;DHT22;19359;51.402;6.778;2023-02-24T14:39:17;5.20;99.90
7784;DHT22;19359;51.402;6.778;2023-02-24T14:44:18;5.40;99.90
7784;DHT22;19359;51.402;6.778;2023-02-24T14:46:47;5.50;99.90
7784;DHT22;19359;51.402;6.778;2023-02-24T14:49:18;5.50;99.90
7784;DHT22;19359;51.402;6.778;2023-02-24T14:54:19;5.40;99.90
7784;DHT22;19359;51.402;6.778;2023-02-24T14:59:18;5.50;99.90
7784;DHT22;19359;51.402;6.778;2023-02-24T15:01:50;5.50;99.90
7784;DHT22;19359;51.402;6.778;2023-02-24T15:04:29;5.50;99.90
7784;DHT22;19359;51.402;6.778;2023-02-24T15:09:32;5.70;99.90
7784;DHT22;19359;51.402;6.778;2023-02-24T15:12:10;5.70;99.90
7784;DHT22;19359;51.402;6.778;2023-02-24T15:17:09;5.90;99.90
7784;DHT22;19359;51.402;6.778;2023-02-24T15:19:41;5.90;99.90
7784;DHT22;19359;51.402;6.778;2023-02-24T15:22:21;5.90;99.90
7784;DHT22;19359;51.402;6.778;2023-02-24T15:30:04;6.10;99.90
7784;DHT22;19359;51.402;6.778;2023-02-24T15:32:34;6.10;99.90
7784;DHT22;19359;51.402;6.778;2023-02-24T15:35:03;6.10;99.90
7784;DHT22;19359;51.402;6.778;2023-02-24T15:37:37;6.00;99.90
7784;DHT22;19359;51.402;6.778;2023-02-24T15:40:16;5.70;99.90
7784;DHT22;19359;51.402;6.778;2023-02-24T15:42:49;6.00;99.90
7784;DHT22;19359;51.402;6.778;2023-02-24T15:45:24;6.00;99.90
7784;DHT22;19359;51.402;6.778;2023-02-24T15:47:52;6.00;99.90
7784;DHT22;19359;51.402;6.778;2023-02-24T15:55:16;6.00;99.90
7784;DHT22;19359;51.402;6.778;2023-02-24T16:00:13;7.50;99.90
7784;DHT22;19359;51.402;6.778;2023-02-24T16:05:12;5.90;99.90
7784;DHT22;19359;51.402;6.778;2023-02-24T16:07:40;6.00;99.90
7784;DHT22;19359;51.402;6.778;2023-02-24T16:12:47;5.80;99.90
7784;DHT22;19359;51.402;6.778;2023-02-24T16:15:19;5.90;99.90
7784;DHT22;19359;51.402;6.778;2023-02-24T16:20:15;5.80;99.90
7784;DHT22;19359;51.402;6.778;2023-02-24T16:30:09;5.70;87.60
7784;DHT22;19359;51.402;6.778;2023-02-24T16:35:07;5.60;1.00
7784;DHT22;19359;51.402;6.778;2023-02-24T16:37:35;5.80;99.90
7784;DHT22;19359;51.402;6.778;2023-02-24T16:47:33;5.80;1.00
7784;DHT22;19359;51.402;6.778;2023-02-24T17:02:20;5.90;1.00
7784;DHT22;19359;51.402;6.778;2023-02-24T17:04:48;5.80;99.90
7784;DHT22;19359;51.402;6.778;2023-02-24T17:22:04;5.70;99.90
7784;DHT22;19359;51.402;6.778;2023-02-24T17:39:17;5.70;99.90
7784;DHT22;19359;51.402;6.778;2023-02-24T17:56:27;5.60;99.90
7784;DHT22;19359;51.402;6.778;2023-02-24T18:11:14;5.60;1.00
7784;DHT22;19359;51.402;6.778;2023-02-24T18:16:12;5.80;1.00
7784;DHT22;19359;51.402;6.778;2023-02-24T18:21:06;5.70;1.00
7784;DHT22;19359;51.402;6.778;2023-02-24T18:23:34;5.70;99.90
7784;DHT22;19359;51.402;6.778;2023-02-24T18:30:58;5.70;99.90
7784;DHT22;19359;51.402;6.778;2023-02-24T18:35:57;5.70;88.90
7784;DHT22;19359;51.402;6.778;2023-02-24T18:38:25;5.50;7.50
7784;DHT22;19359;51.402;6.778;2023-02-24T18:40:59;5.30;99.90
7784;DHT22;19359;51.402;6.778;2023-02-24T18:43:26;5.20;39.90
7784;DHT22;19359;51.402;6.778;2023-02-24T18:45:59;5.20;99.90
7784;DHT22;19359;51.402;6.778;2023-02-24T18:50:55;5.10;99.90
7784;DHT22;19359;51.402;6.778;2023-02-24T19:03:12;5.10;99.90
7784;DHT22;19359;51.402;6.778;2023-02-24T19:10:35;5.10;99.90
7784;DHT22;19359;51.402;6.778;2023-02-24T19:20:27;5.20;99.90
7784;DHT22;19359;51.402;6.778;2023-02-24T19:37:39;5.20;99.90
7784;DHT22;19359;51.402;6.778;2023-02-24T19:40:06;5.20;99.90
7784;DHT22;19359;51.402;6.778;2023-02-24T19:54:50;4.80;99.90
7784;DHT22;19359;51.402;6.778;2023-02-24T19:59:48;4.60;99.90
7784;DHT22;19359;51.402;6.778;2023-02-24T20:09:39;4.40;99.90
7784;DHT22;19359;51.402;6.778;2023-02-24T20:12:08;4.50;99.90
7784;DHT22;19359;51.402;6.778;2023-02-24T20:29:20;4.50;99.90
7784;DHT22;19359;51.402;6.778;2023-02-24T20:41:38;4.60;99.90
7784;DHT22;19359;51.402;6.778;2023-02-24T20:46:34;4.50;99.90
7784;DHT22;19359;51.402;6.778;2023-02-24T20:49:03;4.50;99.90
7784;DHT22;19359;51.402;6.778;2023-02-24T20:51:32;4.40;99.90
7784;DHT22;19359;51.402;6.778;2023-02-24T20:56:27;4.30;99.90
7784;DHT22;19359;51.402;6.778;2023-02-24T20:58:57;4.20;99.90
7784;DHT22;19359;51.402;6.778;2023-02-24T21:03:53;4.30;99.90
7784;DHT22;19359;51.402;6.778;2023-02-24T21:13:43;4.10;99.90
7784;DHT22;19359;51.402;6.778;2023-02-24T21:16:11;4.10;99.90
7784;DHT22;19359;51.402;6.778;2023-02-24T21:18:39;4.10;99.90
7784;DHT22;19359;51.402;6.778;2023-02-24T21:21:08;4.20;99.90
7784;DHT22;19359;51.402;6.778;2023-02-24T21:23:36;4.10;99.90
7784;DHT22;19359;51.402;6.778;2023-02-24T21:26:04;6.00;99.90
7784;DHT22;19359;51.402;6.778;2023-02-24T21:35:56;4.10;99.90
7784;DHT22;19359;51.402;6.778;2023-02-24T21:38:24;4.10;99.90
7784;DHT22;19359;51.402;6.778;2023-02-24T21:55:38;4.10;99.90
7784;DHT22;19359;51.402;6.778;2023-02-24T22:10:22;4.30;98.60
7784;DHT22;19359;51.402;6.778;2023-02-24T22:12:54;4.30;99.40
7784;DHT22;19359;51.402;6.778;2023-02-24T22:30:07;4.90;94.70
7784;DHT22;19359;51.402;6.778;2023-02-24T22:47:18;4.20;93.50
7784;DHT22;19359;51.402;6.778;2023-02-24T23:04:32;4.10;95.00
7784;DHT22;19359;51.402;6.778;2023-02-24T23:16:50;4.10;92.70
7784;DHT22;19359;51.402;6.778;2023-02-24T23:21:50;4.20;91.00
7784;DHT22;19359;51.402;6.778;2023-02-24T23:24:18;4.20;90.40
7784;DHT22;19359;51.402;6.778;2023-02-24T23:26:47;4.20;89.60
7784;DHT22;19359;51.402;6.778;2023-02-24T23:29:16;4.20;90.00
7784;DHT22;19359;51.402;6.778;2023-02-24T23:34:11;4.20;87.80
7784;DHT22;19359;51.402;6.778;2023-02-24T23:36:39;4.20;87.50
7784;DHT22;19359;51.402;6.778;2023-02-24T23:39:10;4.30;87.40
7784;DHT22;19359;51.402;6.778;2023-02-24T23:44:06;4.30;85.40
7784;DHT22;19359;51.402;6.778;2023-02-24T23:46:34;4.30;86.60
7784;DHT22;19359;51.402;6.778;2023-02-24T23:56:25;4.30;89.40
